Terminal Aerodrome Forecast
Issued by NWS Pueblo, CO

Home | Current Version | Previous Version | Text Only | Print | Product List | Glossary On
Versions: 1 2 3 4 5 6 7 8 9 10 11 12 13 14 15 16 17 18 19 20 21 22 23 24 25 26 27 28 29 30 31 32 33 34 35 36 37 38 39 40 41 42 43 44 45 46 47 48 49 50
000
FTUS45 KPUB 271900 AAA
TAFPUB
TAF AMD
KPUB 271900Z 2719/2818 36015G25KT P6SM VCSH SCT070 BKN100
      TEMPO 2719/2723 01030G40KT -SHRA BKN070
     FM280200 27009KT P6SM SCT060 BKN100
     FM280500 32006KT P6SM SCT100 SCT250
     FM281700 12007KT P6SM FEW070=

USA.gov is the U.S. government's official web portal to all federal, state and local government web resources and services.